<?xml version="1.0" encoding="UTF-8" standalone="no" ?>
<gpx xmlns="http://www.topografix.com/GPX/1/1" xmlns:xsi="http://www.w3.org/2001/XMLSchema-instance" xsi:schemaLocation="http://www.topografix.com/GPX/1/1 http://www.topografix.com/GPX/1/1/gpx.xsd" version="1.1" creator="VisuGPX - https://www.visugpx.com">
  <metadata>
    <name>83 - L - la Garde Freinet</name>
    <desc><![CDATA[83 - L - la Garde Freinet - N.D de Miremer]]></desc>
  </metadata>
  <wpt lat="43.32002" lon="6.47033">
    <ele>377</ele>
    <name><![CDATA[]]></name>
    <type><![CDATA[GENERIC]]></type>
  </wpt>
  <wpt lat="43.32001" lon="6.47043">
    <ele>399</ele>
    <name><![CDATA[]]></name>
    <type><![CDATA[GENERIC]]></type>
  </wpt>
  <trk>
    <name><![CDATA[Randonnée du 17/02/2025 à 09:08]]></name>
    <trkseg>
      <trkpt lat="43.32001" lon="6.47043">
        <ele>399</ele>
        <time>2025-02-17T08:08:24.000Z</time>
      </trkpt>
      <trkpt lat="43.31999" lon="6.47041">
        <ele>399</ele>
        <time>2025-02-17T08:08:26.000Z</time>
      </trkpt>
      <trkpt lat="43.31983" lon="6.47025">
        <ele>370</ele>
        <time>2025-02-17T08:17:09.000Z</time>
      </trkpt>
      <trkpt lat="43.3196" lon="6.4702">
        <ele>372</ele>
        <time>2025-02-17T08:17:34.000Z</time>
      </trkpt>
      <trkpt lat="43.31937" lon="6.47022">
        <ele>381</ele>
        <time>2025-02-17T08:17:58.000Z</time>
      </trkpt>
      <trkpt lat="43.31916" lon="6.47013">
        <ele>380</ele>
        <time>2025-02-17T08:18:29.000Z</time>
      </trkpt>
      <trkpt lat="43.31901" lon="6.46989">
        <ele>378</ele>
        <time>2025-02-17T08:18:53.000Z</time>
      </trkpt>
      <trkpt lat="43.31892" lon="6.46963">
        <ele>380</ele>
        <time>2025-02-17T08:19:18.000Z</time>
      </trkpt>
      <trkpt lat="43.31904" lon="6.46941">
        <ele>383</ele>
        <time>2025-02-17T08:19:41.000Z</time>
      </trkpt>
      <trkpt lat="43.31906" lon="6.46915">
        <ele>384</ele>
        <time>2025-02-17T08:20:18.000Z</time>
      </trkpt>
      <trkpt lat="43.31889" lon="6.469">
        <ele>386</ele>
        <time>2025-02-17T08:20:48.000Z</time>
      </trkpt>
      <trkpt lat="43.31869" lon="6.46884">
        <ele>387</ele>
        <time>2025-02-17T08:21:29.000Z</time>
      </trkpt>
      <trkpt lat="43.31849" lon="6.46868">
        <ele>389</ele>
        <time>2025-02-17T08:22:33.000Z</time>
      </trkpt>
      <trkpt lat="43.31829" lon="6.46859">
        <ele>390</ele>
        <time>2025-02-17T08:22:57.000Z</time>
      </trkpt>
      <trkpt lat="43.31809" lon="6.46866">
        <ele>392</ele>
        <time>2025-02-17T08:23:25.000Z</time>
      </trkpt>
      <trkpt lat="43.31793" lon="6.46847">
        <ele>393</ele>
        <time>2025-02-17T08:24:17.000Z</time>
      </trkpt>
      <trkpt lat="43.31775" lon="6.46834">
        <ele>395</ele>
        <time>2025-02-17T08:25:13.000Z</time>
      </trkpt>
      <trkpt lat="43.31759" lon="6.46851">
        <ele>395</ele>
        <time>2025-02-17T08:26:15.000Z</time>
      </trkpt>
      <trkpt lat="43.31749" lon="6.46878">
        <ele>396</ele>
        <time>2025-02-17T08:26:38.000Z</time>
      </trkpt>
      <trkpt lat="43.31742" lon="6.46908">
        <ele>397</ele>
        <time>2025-02-17T08:27:21.000Z</time>
      </trkpt>
      <trkpt lat="43.31733" lon="6.46936">
        <ele>398</ele>
        <time>2025-02-17T08:27:47.000Z</time>
      </trkpt>
      <trkpt lat="43.31723" lon="6.46965">
        <ele>398</ele>
        <time>2025-02-17T08:28:10.000Z</time>
      </trkpt>
      <trkpt lat="43.31709" lon="6.46988">
        <ele>398</ele>
        <time>2025-02-17T08:28:38.000Z</time>
      </trkpt>
      <trkpt lat="43.31688" lon="6.47004">
        <ele>398</ele>
        <time>2025-02-17T08:29:15.000Z</time>
      </trkpt>
      <trkpt lat="43.31669" lon="6.47021">
        <ele>398</ele>
        <time>2025-02-17T08:29:43.000Z</time>
      </trkpt>
      <trkpt lat="43.3165" lon="6.47037">
        <ele>398</ele>
        <time>2025-02-17T08:30:03.000Z</time>
      </trkpt>
      <trkpt lat="43.31628" lon="6.47049">
        <ele>398</ele>
        <time>2025-02-17T08:30:26.000Z</time>
      </trkpt>
      <trkpt lat="43.31607" lon="6.47059">
        <ele>398</ele>
        <time>2025-02-17T08:30:51.000Z</time>
      </trkpt>
      <trkpt lat="43.31585" lon="6.47069">
        <ele>398</ele>
        <time>2025-02-17T08:31:13.000Z</time>
      </trkpt>
      <trkpt lat="43.31563" lon="6.47075">
        <ele>398</ele>
        <time>2025-02-17T08:31:39.000Z</time>
      </trkpt>
      <trkpt lat="43.3154" lon="6.47079">
        <ele>398</ele>
        <time>2025-02-17T08:32:03.000Z</time>
      </trkpt>
      <trkpt lat="43.31519" lon="6.47088">
        <ele>398</ele>
        <time>2025-02-17T08:32:27.000Z</time>
      </trkpt>
      <trkpt lat="43.31496" lon="6.47094">
        <ele>398</ele>
        <time>2025-02-17T08:32:55.000Z</time>
      </trkpt>
      <trkpt lat="43.31473" lon="6.47098">
        <ele>398</ele>
        <time>2025-02-17T08:33:20.000Z</time>
      </trkpt>
      <trkpt lat="43.31452" lon="6.47107">
        <ele>398</ele>
        <time>2025-02-17T08:33:45.000Z</time>
      </trkpt>
      <trkpt lat="43.31431" lon="6.47118">
        <ele>399</ele>
        <time>2025-02-17T08:34:11.000Z</time>
      </trkpt>
      <trkpt lat="43.31412" lon="6.47132">
        <ele>399</ele>
        <time>2025-02-17T08:34:39.000Z</time>
      </trkpt>
      <trkpt lat="43.31391" lon="6.47132">
        <ele>399</ele>
        <time>2025-02-17T08:35:05.000Z</time>
      </trkpt>
      <trkpt lat="43.31369" lon="6.47135">
        <ele>398</ele>
        <time>2025-02-17T08:35:29.000Z</time>
      </trkpt>
      <trkpt lat="43.31347" lon="6.47145">
        <ele>397</ele>
        <time>2025-02-17T08:35:50.000Z</time>
      </trkpt>
      <trkpt lat="43.31325" lon="6.47156">
        <ele>396</ele>
        <time>2025-02-17T08:36:17.000Z</time>
      </trkpt>
      <trkpt lat="43.31303" lon="6.47163">
        <ele>396</ele>
        <time>2025-02-17T08:36:45.000Z</time>
      </trkpt>
      <trkpt lat="43.31281" lon="6.47166">
        <ele>396</ele>
        <time>2025-02-17T08:37:13.000Z</time>
      </trkpt>
      <trkpt lat="43.31258" lon="6.47163">
        <ele>393</ele>
        <time>2025-02-17T08:37:40.000Z</time>
      </trkpt>
      <trkpt lat="43.31237" lon="6.47153">
        <ele>393</ele>
        <time>2025-02-17T08:38:06.000Z</time>
      </trkpt>
      <trkpt lat="43.31217" lon="6.47136">
        <ele>390</ele>
        <time>2025-02-17T08:38:32.000Z</time>
      </trkpt>
      <trkpt lat="43.31196" lon="6.47123">
        <ele>387</ele>
        <time>2025-02-17T08:38:57.000Z</time>
      </trkpt>
      <trkpt lat="43.31173" lon="6.47117">
        <ele>386</ele>
        <time>2025-02-17T08:39:19.000Z</time>
      </trkpt>
      <trkpt lat="43.31151" lon="6.47113">
        <ele>382</ele>
        <time>2025-02-17T08:39:49.000Z</time>
      </trkpt>
      <trkpt lat="43.31129" lon="6.47112">
        <ele>380</ele>
        <time>2025-02-17T08:40:12.000Z</time>
      </trkpt>
      <trkpt lat="43.31107" lon="6.47108">
        <ele>379</ele>
        <time>2025-02-17T08:40:39.000Z</time>
      </trkpt>
      <trkpt lat="43.31084" lon="6.47102">
        <ele>375</ele>
        <time>2025-02-17T08:41:05.000Z</time>
      </trkpt>
      <trkpt lat="43.31062" lon="6.471">
        <ele>373</ele>
        <time>2025-02-17T08:41:41.000Z</time>
      </trkpt>
      <trkpt lat="43.3104" lon="6.47093">
        <ele>370</ele>
        <time>2025-02-17T08:42:27.000Z</time>
      </trkpt>
      <trkpt lat="43.31018" lon="6.47089">
        <ele>366</ele>
        <time>2025-02-17T08:42:48.000Z</time>
      </trkpt>
      <trkpt lat="43.30995" lon="6.47083">
        <ele>366</ele>
        <time>2025-02-17T08:43:12.000Z</time>
      </trkpt>
      <trkpt lat="43.30973" lon="6.47076">
        <ele>365</ele>
        <time>2025-02-17T08:43:41.000Z</time>
      </trkpt>
      <trkpt lat="43.3095" lon="6.47069">
        <ele>366</ele>
        <time>2025-02-17T08:44:05.000Z</time>
      </trkpt>
      <trkpt lat="43.30927" lon="6.47067">
        <ele>367</ele>
        <time>2025-02-17T08:45:35.000Z</time>
      </trkpt>
      <trkpt lat="43.30904" lon="6.47063">
        <ele>367</ele>
        <time>2025-02-17T08:46:01.000Z</time>
      </trkpt>
      <trkpt lat="43.30882" lon="6.4706">
        <ele>367</ele>
        <time>2025-02-17T08:46:33.000Z</time>
      </trkpt>
      <trkpt lat="43.3086" lon="6.47056">
        <ele>367</ele>
        <time>2025-02-17T08:47:14.000Z</time>
      </trkpt>
      <trkpt lat="43.30838" lon="6.47047">
        <ele>368</ele>
        <time>2025-02-17T08:48:02.000Z</time>
      </trkpt>
      <trkpt lat="43.30817" lon="6.47035">
        <ele>367</ele>
        <time>2025-02-17T08:48:24.000Z</time>
      </trkpt>
      <trkpt lat="43.30798" lon="6.47019">
        <ele>368</ele>
        <time>2025-02-17T08:48:47.000Z</time>
      </trkpt>
      <trkpt lat="43.30782" lon="6.46996">
        <ele>369</ele>
        <time>2025-02-17T08:49:13.000Z</time>
      </trkpt>
      <trkpt lat="43.30766" lon="6.46974">
        <ele>369</ele>
        <time>2025-02-17T08:49:50.000Z</time>
      </trkpt>
      <trkpt lat="43.30748" lon="6.46954">
        <ele>369</ele>
        <time>2025-02-17T08:50:46.000Z</time>
      </trkpt>
      <trkpt lat="43.30728" lon="6.4694">
        <ele>370</ele>
        <time>2025-02-17T08:52:16.000Z</time>
      </trkpt>
      <trkpt lat="43.30706" lon="6.46942">
        <ele>369</ele>
        <time>2025-02-17T08:53:14.000Z</time>
      </trkpt>
      <trkpt lat="43.30685" lon="6.46933">
        <ele>369</ele>
        <time>2025-02-17T08:53:40.000Z</time>
      </trkpt>
      <trkpt lat="43.30666" lon="6.46916">
        <ele>368</ele>
        <time>2025-02-17T08:54:10.000Z</time>
      </trkpt>
      <trkpt lat="43.30647" lon="6.469">
        <ele>368</ele>
        <time>2025-02-17T08:54:34.000Z</time>
      </trkpt>
      <trkpt lat="43.30626" lon="6.46892">
        <ele>367</ele>
        <time>2025-02-17T08:56:02.000Z</time>
      </trkpt>
      <trkpt lat="43.30607" lon="6.46907">
        <ele>366</ele>
        <time>2025-02-17T08:56:35.000Z</time>
      </trkpt>
      <trkpt lat="43.30588" lon="6.46924">
        <ele>366</ele>
        <time>2025-02-17T08:57:03.000Z</time>
      </trkpt>
      <trkpt lat="43.30568" lon="6.46941">
        <ele>365</ele>
        <time>2025-02-17T08:57:35.000Z</time>
      </trkpt>
      <trkpt lat="43.30547" lon="6.46954">
        <ele>364</ele>
        <time>2025-02-17T08:58:05.000Z</time>
      </trkpt>
      <trkpt lat="43.30527" lon="6.46967">
        <ele>363</ele>
        <time>2025-02-17T08:58:38.000Z</time>
      </trkpt>
      <trkpt lat="43.30513" lon="6.46989">
        <ele>362</ele>
        <time>2025-02-17T08:59:05.000Z</time>
      </trkpt>
      <trkpt lat="43.30511" lon="6.4702">
        <ele>361</ele>
        <time>2025-02-17T08:59:37.000Z</time>
      </trkpt>
      <trkpt lat="43.30498" lon="6.47045">
        <ele>360</ele>
        <time>2025-02-17T09:00:02.000Z</time>
      </trkpt>
      <trkpt lat="43.30479" lon="6.47063">
        <ele>360</ele>
        <time>2025-02-17T09:00:32.000Z</time>
      </trkpt>
      <trkpt lat="43.30457" lon="6.47069">
        <ele>360</ele>
        <time>2025-02-17T09:00:55.000Z</time>
      </trkpt>
      <trkpt lat="43.30434" lon="6.47072">
        <ele>359</ele>
        <time>2025-02-17T09:01:21.000Z</time>
      </trkpt>
      <trkpt lat="43.30413" lon="6.47084">
        <ele>359</ele>
        <time>2025-02-17T09:01:57.000Z</time>
      </trkpt>
      <trkpt lat="43.30393" lon="6.47097">
        <ele>359</ele>
        <time>2025-02-17T09:03:36.000Z</time>
      </trkpt>
      <trkpt lat="43.30393" lon="6.47126">
        <ele>359</ele>
        <time>2025-02-17T09:04:48.000Z</time>
      </trkpt>
      <trkpt lat="43.30402" lon="6.47155">
        <ele>358</ele>
        <time>2025-02-17T09:05:14.000Z</time>
      </trkpt>
      <trkpt lat="43.30412" lon="6.47183">
        <ele>358</ele>
        <time>2025-02-17T09:05:36.000Z</time>
      </trkpt>
      <trkpt lat="43.30418" lon="6.47213">
        <ele>357</ele>
        <time>2025-02-17T09:06:16.000Z</time>
      </trkpt>
      <trkpt lat="43.30425" lon="6.47244">
        <ele>356</ele>
        <time>2025-02-17T09:06:44.000Z</time>
      </trkpt>
      <trkpt lat="43.30427" lon="6.47275">
        <ele>356</ele>
        <time>2025-02-17T09:07:36.000Z</time>
      </trkpt>
      <trkpt lat="43.3043" lon="6.47306">
        <ele>356</ele>
        <time>2025-02-17T09:08:08.000Z</time>
      </trkpt>
      <trkpt lat="43.30426" lon="6.47337">
        <ele>356</ele>
        <time>2025-02-17T09:08:40.000Z</time>
      </trkpt>
      <trkpt lat="43.30414" lon="6.47364">
        <ele>355</ele>
        <time>2025-02-17T09:09:06.000Z</time>
      </trkpt>
      <trkpt lat="43.30398" lon="6.47386">
        <ele>355</ele>
        <time>2025-02-17T09:10:01.000Z</time>
      </trkpt>
      <trkpt lat="43.30378" lon="6.47402">
        <ele>354</ele>
        <time>2025-02-17T09:10:34.000Z</time>
      </trkpt>
      <trkpt lat="43.30356" lon="6.47406">
        <ele>355</ele>
        <time>2025-02-17T09:11:02.000Z</time>
      </trkpt>
      <trkpt lat="43.30333" lon="6.47415">
        <ele>356</ele>
        <time>2025-02-17T09:11:30.000Z</time>
      </trkpt>
      <trkpt lat="43.3031" lon="6.47422">
        <ele>356</ele>
        <time>2025-02-17T09:11:54.000Z</time>
      </trkpt>
      <trkpt lat="43.30288" lon="6.47427">
        <ele>356</ele>
        <time>2025-02-17T09:12:19.000Z</time>
      </trkpt>
      <trkpt lat="43.30266" lon="6.47432">
        <ele>355</ele>
        <time>2025-02-17T09:13:23.000Z</time>
      </trkpt>
      <trkpt lat="43.30244" lon="6.47441">
        <ele>354</ele>
        <time>2025-02-17T09:16:02.000Z</time>
      </trkpt>
      <trkpt lat="43.30221" lon="6.47445">
        <ele>355</ele>
        <time>2025-02-17T09:16:24.000Z</time>
      </trkpt>
      <trkpt lat="43.30198" lon="6.47446">
        <ele>355</ele>
        <time>2025-02-17T09:16:50.000Z</time>
      </trkpt>
      <trkpt lat="43.30174" lon="6.47445">
        <ele>356</ele>
        <time>2025-02-17T09:17:14.000Z</time>
      </trkpt>
      <trkpt lat="43.30151" lon="6.47445">
        <ele>356</ele>
        <time>2025-02-17T09:17:38.000Z</time>
      </trkpt>
      <trkpt lat="43.30129" lon="6.47437">
        <ele>355</ele>
        <time>2025-02-17T09:18:28.000Z</time>
      </trkpt>
      <trkpt lat="43.30107" lon="6.4743">
        <ele>355</ele>
        <time>2025-02-17T09:18:56.000Z</time>
      </trkpt>
      <trkpt lat="43.30086" lon="6.47424">
        <ele>355</ele>
        <time>2025-02-17T09:19:18.000Z</time>
      </trkpt>
      <trkpt lat="43.30064" lon="6.47415">
        <ele>354</ele>
        <time>2025-02-17T09:19:40.000Z</time>
      </trkpt>
      <trkpt lat="43.30041" lon="6.47411">
        <ele>354</ele>
        <time>2025-02-17T09:20:04.000Z</time>
      </trkpt>
      <trkpt lat="43.30018" lon="6.47414">
        <ele>354</ele>
        <time>2025-02-17T09:20:30.000Z</time>
      </trkpt>
      <trkpt lat="43.29994" lon="6.4742">
        <ele>354</ele>
        <time>2025-02-17T09:20:53.000Z</time>
      </trkpt>
      <trkpt lat="43.29967" lon="6.47426">
        <ele>353</ele>
        <time>2025-02-17T09:21:28.000Z</time>
      </trkpt>
      <trkpt lat="43.29944" lon="6.4742">
        <ele>353</ele>
        <time>2025-02-17T09:21:50.000Z</time>
      </trkpt>
      <trkpt lat="43.2993" lon="6.47397">
        <ele>353</ele>
        <time>2025-02-17T09:22:15.000Z</time>
      </trkpt>
      <trkpt lat="43.2992" lon="6.4737">
        <ele>354</ele>
        <time>2025-02-17T09:22:44.000Z</time>
      </trkpt>
      <trkpt lat="43.2991" lon="6.47344">
        <ele>354</ele>
        <time>2025-02-17T09:23:10.000Z</time>
      </trkpt>
      <trkpt lat="43.29889" lon="6.47344">
        <ele>355</ele>
        <time>2025-02-17T09:24:40.000Z</time>
      </trkpt>
      <trkpt lat="43.29872" lon="6.47363">
        <ele>354</ele>
        <time>2025-02-17T09:25:32.000Z</time>
      </trkpt>
      <trkpt lat="43.29859" lon="6.47388">
        <ele>353</ele>
        <time>2025-02-17T09:26:03.000Z</time>
      </trkpt>
      <trkpt lat="43.2985" lon="6.47417">
        <ele>352</ele>
        <time>2025-02-17T09:26:31.000Z</time>
      </trkpt>
      <trkpt lat="43.29839" lon="6.47444">
        <ele>351</ele>
        <time>2025-02-17T09:26:58.000Z</time>
      </trkpt>
      <trkpt lat="43.29827" lon="6.4747">
        <ele>350</ele>
        <time>2025-02-17T09:27:26.000Z</time>
      </trkpt>
      <trkpt lat="43.2982" lon="6.47499">
        <ele>349</ele>
        <time>2025-02-17T09:28:01.000Z</time>
      </trkpt>
      <trkpt lat="43.29817" lon="6.4753">
        <ele>348</ele>
        <time>2025-02-17T09:28:21.000Z</time>
      </trkpt>
      <trkpt lat="43.29818" lon="6.47562">
        <ele>347</ele>
        <time>2025-02-17T09:28:45.000Z</time>
      </trkpt>
      <trkpt lat="43.29819" lon="6.47594">
        <ele>346</ele>
        <time>2025-02-17T09:29:11.000Z</time>
      </trkpt>
      <trkpt lat="43.29822" lon="6.47624">
        <ele>345</ele>
        <time>2025-02-17T09:29:47.000Z</time>
      </trkpt>
      <trkpt lat="43.29823" lon="6.47655">
        <ele>344</ele>
        <time>2025-02-17T09:30:15.000Z</time>
      </trkpt>
      <trkpt lat="43.29819" lon="6.47685">
        <ele>343</ele>
        <time>2025-02-17T09:30:53.000Z</time>
      </trkpt>
      <trkpt lat="43.29815" lon="6.47715">
        <ele>342</ele>
        <time>2025-02-17T09:31:30.000Z</time>
      </trkpt>
      <trkpt lat="43.2981" lon="6.47745">
        <ele>341</ele>
        <time>2025-02-17T09:32:01.000Z</time>
      </trkpt>
      <trkpt lat="43.29801" lon="6.47775">
        <ele>340</ele>
        <time>2025-02-17T09:32:27.000Z</time>
      </trkpt>
      <trkpt lat="43.2979" lon="6.47802">
        <ele>339</ele>
        <time>2025-02-17T09:33:05.000Z</time>
      </trkpt>
      <trkpt lat="43.29775" lon="6.47826">
        <ele>339</ele>
        <time>2025-02-17T09:33:34.000Z</time>
      </trkpt>
      <trkpt lat="43.29758" lon="6.47843">
        <ele>340</ele>
        <time>2025-02-17T09:34:01.000Z</time>
      </trkpt>
      <trkpt lat="43.29764" lon="6.47869">
        <ele>342</ele>
        <time>2025-02-17T09:37:08.000Z</time>
      </trkpt>
      <trkpt lat="43.29767" lon="6.47901">
        <ele>344</ele>
        <time>2025-02-17T09:37:45.000Z</time>
      </trkpt>
      <trkpt lat="43.29769" lon="6.47933">
        <ele>346</ele>
        <time>2025-02-17T09:38:37.000Z</time>
      </trkpt>
      <trkpt lat="43.29776" lon="6.47963">
        <ele>348</ele>
        <time>2025-02-17T09:39:11.000Z</time>
      </trkpt>
      <trkpt lat="43.29785" lon="6.47992">
        <ele>351</ele>
        <time>2025-02-17T09:40:10.000Z</time>
      </trkpt>
      <trkpt lat="43.29796" lon="6.48019">
        <ele>354</ele>
        <time>2025-02-17T09:40:53.000Z</time>
      </trkpt>
      <trkpt lat="43.29803" lon="6.48051">
        <ele>358</ele>
        <time>2025-02-17T09:41:33.000Z</time>
      </trkpt>
      <trkpt lat="43.29804" lon="6.48078">
        <ele>362</ele>
        <time>2025-02-17T09:42:07.000Z</time>
      </trkpt>
      <trkpt lat="43.29786" lon="6.48085">
        <ele>366</ele>
        <time>2025-02-17T09:42:59.000Z</time>
      </trkpt>
      <trkpt lat="43.29781" lon="6.48111">
        <ele>369</ele>
        <time>2025-02-17T09:44:05.000Z</time>
      </trkpt>
      <trkpt lat="43.29785" lon="6.48139">
        <ele>372</ele>
        <time>2025-02-17T09:44:43.000Z</time>
      </trkpt>
      <trkpt lat="43.29775" lon="6.48164">
        <ele>376</ele>
        <time>2025-02-17T09:45:53.000Z</time>
      </trkpt>
      <trkpt lat="43.29761" lon="6.48181">
        <ele>380</ele>
        <time>2025-02-17T09:46:47.000Z</time>
      </trkpt>
      <trkpt lat="43.29766" lon="6.48205">
        <ele>384</ele>
        <time>2025-02-17T09:54:44.000Z</time>
      </trkpt>
      <trkpt lat="43.29757" lon="6.48228">
        <ele>388</ele>
        <time>2025-02-17T09:55:53.000Z</time>
      </trkpt>
      <trkpt lat="43.29762" lon="6.48253">
        <ele>393</ele>
        <time>2025-02-17T09:56:52.000Z</time>
      </trkpt>
      <trkpt lat="43.29751" lon="6.48275">
        <ele>398</ele>
        <time>2025-02-17T09:58:04.000Z</time>
      </trkpt>
      <trkpt lat="43.29736" lon="6.48288">
        <ele>403</ele>
        <time>2025-02-17T10:01:16.000Z</time>
      </trkpt>
      <trkpt lat="43.29744" lon="6.48309">
        <ele>409</ele>
        <time>2025-02-17T10:02:19.000Z</time>
      </trkpt>
      <trkpt lat="43.29738" lon="6.48333">
        <ele>415</ele>
        <time>2025-02-17T10:04:05.000Z</time>
      </trkpt>
      <trkpt lat="43.29744" lon="6.48359">
        <ele>420</ele>
        <time>2025-02-17T10:05:41.000Z</time>
      </trkpt>
      <trkpt lat="43.29735" lon="6.48381">
        <ele>423</ele>
        <time>2025-02-17T10:07:08.000Z</time>
      </trkpt>
      <trkpt lat="43.2974" lon="6.48404">
        <ele>426</ele>
        <time>2025-02-17T10:10:00.000Z</time>
      </trkpt>
      <trkpt lat="43.29723" lon="6.48418">
        <ele>430</ele>
        <time>2025-02-17T10:10:44.000Z</time>
      </trkpt>
      <trkpt lat="43.29701" lon="6.48422">
        <ele>434</ele>
        <time>2025-02-17T10:11:14.000Z</time>
      </trkpt>
      <trkpt lat="43.29679" lon="6.48426">
        <ele>437</ele>
        <time>2025-02-17T10:11:50.000Z</time>
      </trkpt>
      <trkpt lat="43.29659" lon="6.4844">
        <ele>439</ele>
        <time>2025-02-17T10:12:21.000Z</time>
      </trkpt>
      <trkpt lat="43.29639" lon="6.48459">
        <ele>441</ele>
        <time>2025-02-17T10:13:26.000Z</time>
      </trkpt>
      <trkpt lat="43.29619" lon="6.4847">
        <ele>442</ele>
        <time>2025-02-17T10:28:06.000Z</time>
      </trkpt>
      <trkpt lat="43.29634" lon="6.48458">
        <ele>442</ele>
        <time>2025-02-17T10:37:35.000Z</time>
      </trkpt>
      <trkpt lat="43.29646" lon="6.48438">
        <ele>440</ele>
        <time>2025-02-17T10:38:29.000Z</time>
      </trkpt>
      <trkpt lat="43.29629" lon="6.48426">
        <ele>438</ele>
        <time>2025-02-17T10:40:01.000Z</time>
      </trkpt>
      <trkpt lat="43.2961" lon="6.4841">
        <ele>435</ele>
        <time>2025-02-17T10:40:36.000Z</time>
      </trkpt>
      <trkpt lat="43.29589" lon="6.4841">
        <ele>433</ele>
        <time>2025-02-17T10:40:59.000Z</time>
      </trkpt>
      <trkpt lat="43.29565" lon="6.4841">
        <ele>430</ele>
        <time>2025-02-17T10:41:32.000Z</time>
      </trkpt>
      <trkpt lat="43.29542" lon="6.48411">
        <ele>428</ele>
        <time>2025-02-17T10:41:59.000Z</time>
      </trkpt>
      <trkpt lat="43.2952" lon="6.48413">
        <ele>426</ele>
        <time>2025-02-17T10:42:26.000Z</time>
      </trkpt>
      <trkpt lat="43.295" lon="6.48411">
        <ele>424</ele>
        <time>2025-02-17T10:42:58.000Z</time>
      </trkpt>
      <trkpt lat="43.29504" lon="6.48386">
        <ele>422</ele>
        <time>2025-02-17T10:43:29.000Z</time>
      </trkpt>
      <trkpt lat="43.29516" lon="6.48365">
        <ele>420</ele>
        <time>2025-02-17T10:43:54.000Z</time>
      </trkpt>
      <trkpt lat="43.29505" lon="6.48346">
        <ele>419</ele>
        <time>2025-02-17T10:44:54.000Z</time>
      </trkpt>
      <trkpt lat="43.29483" lon="6.48349">
        <ele>417</ele>
        <time>2025-02-17T10:45:22.000Z</time>
      </trkpt>
      <trkpt lat="43.29464" lon="6.48362">
        <ele>414</ele>
        <time>2025-02-17T10:45:52.000Z</time>
      </trkpt>
      <trkpt lat="43.29454" lon="6.48389">
        <ele>412</ele>
        <time>2025-02-17T10:46:20.000Z</time>
      </trkpt>
      <trkpt lat="43.29446" lon="6.48418">
        <ele>408</ele>
        <time>2025-02-17T10:46:44.000Z</time>
      </trkpt>
      <trkpt lat="43.29442" lon="6.48448">
        <ele>406</ele>
        <time>2025-02-17T10:47:18.000Z</time>
      </trkpt>
      <trkpt lat="43.29439" lon="6.48479">
        <ele>404</ele>
        <time>2025-02-17T10:49:16.000Z</time>
      </trkpt>
      <trkpt lat="43.29441" lon="6.4851">
        <ele>402</ele>
        <time>2025-02-17T10:49:44.000Z</time>
      </trkpt>
      <trkpt lat="43.29446" lon="6.48541">
        <ele>399</ele>
        <time>2025-02-17T10:50:12.000Z</time>
      </trkpt>
      <trkpt lat="43.29452" lon="6.4857">
        <ele>397</ele>
        <time>2025-02-17T10:50:40.000Z</time>
      </trkpt>
      <trkpt lat="43.29463" lon="6.48597">
        <ele>394</ele>
        <time>2025-02-17T10:51:06.000Z</time>
      </trkpt>
      <trkpt lat="43.29482" lon="6.48614">
        <ele>392</ele>
        <time>2025-02-17T10:51:38.000Z</time>
      </trkpt>
      <trkpt lat="43.29504" lon="6.48622">
        <ele>390</ele>
        <time>2025-02-17T10:52:06.000Z</time>
      </trkpt>
      <trkpt lat="43.29525" lon="6.48628">
        <ele>388</ele>
        <time>2025-02-17T11:46:08.000Z</time>
      </trkpt>
      <trkpt lat="43.29547" lon="6.48631">
        <ele>387</ele>
        <time>2025-02-17T11:47:00.000Z</time>
      </trkpt>
      <trkpt lat="43.29569" lon="6.48639">
        <ele>386</ele>
        <time>2025-02-17T11:47:50.000Z</time>
      </trkpt>
      <trkpt lat="43.29591" lon="6.48649">
        <ele>386</ele>
        <time>2025-02-17T11:48:12.000Z</time>
      </trkpt>
      <trkpt lat="43.29614" lon="6.48654">
        <ele>386</ele>
        <time>2025-02-17T11:48:46.000Z</time>
      </trkpt>
      <trkpt lat="43.29636" lon="6.48655">
        <ele>387</ele>
        <time>2025-02-17T11:49:34.000Z</time>
      </trkpt>
      <trkpt lat="43.29659" lon="6.48654">
        <ele>387</ele>
        <time>2025-02-17T11:50:06.000Z</time>
      </trkpt>
      <trkpt lat="43.29681" lon="6.48652">
        <ele>386</ele>
        <time>2025-02-17T11:50:40.000Z</time>
      </trkpt>
      <trkpt lat="43.29704" lon="6.48649">
        <ele>385</ele>
        <time>2025-02-17T11:51:14.000Z</time>
      </trkpt>
      <trkpt lat="43.29728" lon="6.48649">
        <ele>384</ele>
        <time>2025-02-17T11:51:56.000Z</time>
      </trkpt>
      <trkpt lat="43.29751" lon="6.48651">
        <ele>384</ele>
        <time>2025-02-17T11:52:24.000Z</time>
      </trkpt>
      <trkpt lat="43.29774" lon="6.48652">
        <ele>384</ele>
        <time>2025-02-17T11:52:49.000Z</time>
      </trkpt>
      <trkpt lat="43.29796" lon="6.48648">
        <ele>383</ele>
        <time>2025-02-17T11:53:21.000Z</time>
      </trkpt>
      <trkpt lat="43.29818" lon="6.48639">
        <ele>383</ele>
        <time>2025-02-17T11:53:48.000Z</time>
      </trkpt>
      <trkpt lat="43.29839" lon="6.4863">
        <ele>383</ele>
        <time>2025-02-17T11:54:17.000Z</time>
      </trkpt>
      <trkpt lat="43.29862" lon="6.48626">
        <ele>382</ele>
        <time>2025-02-17T11:54:48.000Z</time>
      </trkpt>
      <trkpt lat="43.29884" lon="6.48618">
        <ele>381</ele>
        <time>2025-02-17T12:00:51.000Z</time>
      </trkpt>
      <trkpt lat="43.29905" lon="6.48608">
        <ele>380</ele>
        <time>2025-02-17T12:01:22.000Z</time>
      </trkpt>
      <trkpt lat="43.29921" lon="6.48587">
        <ele>378</ele>
        <time>2025-02-17T12:02:02.000Z</time>
      </trkpt>
      <trkpt lat="43.29942" lon="6.48573">
        <ele>376</ele>
        <time>2025-02-17T12:02:28.000Z</time>
      </trkpt>
      <trkpt lat="43.29963" lon="6.48556">
        <ele>374</ele>
        <time>2025-02-17T12:02:59.000Z</time>
      </trkpt>
      <trkpt lat="43.29985" lon="6.48544">
        <ele>371</ele>
        <time>2025-02-17T12:03:36.000Z</time>
      </trkpt>
      <trkpt lat="43.30005" lon="6.48529">
        <ele>369</ele>
        <time>2025-02-17T12:04:01.000Z</time>
      </trkpt>
      <trkpt lat="43.30022" lon="6.48509">
        <ele>368</ele>
        <time>2025-02-17T12:04:31.000Z</time>
      </trkpt>
      <trkpt lat="43.30035" lon="6.48484">
        <ele>366</ele>
        <time>2025-02-17T12:04:58.000Z</time>
      </trkpt>
      <trkpt lat="43.30043" lon="6.48455">
        <ele>364</ele>
        <time>2025-02-17T12:05:23.000Z</time>
      </trkpt>
      <trkpt lat="43.30045" lon="6.48425">
        <ele>361</ele>
        <time>2025-02-17T12:05:50.000Z</time>
      </trkpt>
      <trkpt lat="43.30047" lon="6.48401">
        <ele>359</ele>
        <time>2025-02-17T12:06:22.000Z</time>
      </trkpt>
      <trkpt lat="43.30058" lon="6.48419">
        <ele>358</ele>
        <time>2025-02-17T12:06:54.000Z</time>
      </trkpt>
      <trkpt lat="43.30065" lon="6.48449">
        <ele>356</ele>
        <time>2025-02-17T12:07:24.000Z</time>
      </trkpt>
      <trkpt lat="43.30069" lon="6.48473">
        <ele>355</ele>
        <time>2025-02-17T12:07:52.000Z</time>
      </trkpt>
      <trkpt lat="43.30078" lon="6.48453">
        <ele>353</ele>
        <time>2025-02-17T12:08:30.000Z</time>
      </trkpt>
      <trkpt lat="43.30088" lon="6.48424">
        <ele>351</ele>
        <time>2025-02-17T12:09:03.000Z</time>
      </trkpt>
      <trkpt lat="43.3009" lon="6.48391">
        <ele>348</ele>
        <time>2025-02-17T12:10:09.000Z</time>
      </trkpt>
      <trkpt lat="43.30085" lon="6.4836">
        <ele>345</ele>
        <time>2025-02-17T12:14:35.000Z</time>
      </trkpt>
      <trkpt lat="43.30079" lon="6.4833">
        <ele>343</ele>
        <time>2025-02-17T12:15:05.000Z</time>
      </trkpt>
      <trkpt lat="43.30077" lon="6.48299">
        <ele>340</ele>
        <time>2025-02-17T12:15:34.000Z</time>
      </trkpt>
      <trkpt lat="43.3007" lon="6.48269">
        <ele>337</ele>
        <time>2025-02-17T12:16:03.000Z</time>
      </trkpt>
      <trkpt lat="43.30058" lon="6.48242">
        <ele>335</ele>
        <time>2025-02-17T12:16:35.000Z</time>
      </trkpt>
      <trkpt lat="43.30045" lon="6.48217">
        <ele>331</ele>
        <time>2025-02-17T12:16:59.000Z</time>
      </trkpt>
      <trkpt lat="43.30032" lon="6.48193">
        <ele>329</ele>
        <time>2025-02-17T12:17:32.000Z</time>
      </trkpt>
      <trkpt lat="43.30035" lon="6.48165">
        <ele>326</ele>
        <time>2025-02-17T12:18:03.000Z</time>
      </trkpt>
      <trkpt lat="43.30047" lon="6.48139">
        <ele>323</ele>
        <time>2025-02-17T12:18:32.000Z</time>
      </trkpt>
      <trkpt lat="43.30057" lon="6.48113">
        <ele>320</ele>
        <time>2025-02-17T12:19:05.000Z</time>
      </trkpt>
      <trkpt lat="43.30077" lon="6.48101">
        <ele>318</ele>
        <time>2025-02-17T12:19:45.000Z</time>
      </trkpt>
      <trkpt lat="43.301" lon="6.48097">
        <ele>316</ele>
        <time>2025-02-17T12:20:02.000Z</time>
      </trkpt>
      <trkpt lat="43.30115" lon="6.48086">
        <ele>316</ele>
        <time>2025-02-17T12:20:34.000Z</time>
      </trkpt>
      <trkpt lat="43.30102" lon="6.48101">
        <ele>316</ele>
        <time>2025-02-17T12:21:57.000Z</time>
      </trkpt>
      <trkpt lat="43.3008" lon="6.48107">
        <ele>317</ele>
        <time>2025-02-17T12:22:30.000Z</time>
      </trkpt>
      <trkpt lat="43.3006" lon="6.48103">
        <ele>317</ele>
        <time>2025-02-17T12:23:19.000Z</time>
      </trkpt>
      <trkpt lat="43.30049" lon="6.48079">
        <ele>317</ele>
        <time>2025-02-17T12:24:09.000Z</time>
      </trkpt>
      <trkpt lat="43.30031" lon="6.48061">
        <ele>317</ele>
        <time>2025-02-17T12:24:53.000Z</time>
      </trkpt>
      <trkpt lat="43.30013" lon="6.4804">
        <ele>318</ele>
        <time>2025-02-17T12:25:23.000Z</time>
      </trkpt>
      <trkpt lat="43.29995" lon="6.48019">
        <ele>319</ele>
        <time>2025-02-17T12:27:28.000Z</time>
      </trkpt>
      <trkpt lat="43.29977" lon="6.48">
        <ele>321</ele>
        <time>2025-02-17T12:28:23.000Z</time>
      </trkpt>
      <trkpt lat="43.29956" lon="6.47991">
        <ele>322</ele>
        <time>2025-02-17T12:29:17.000Z</time>
      </trkpt>
      <trkpt lat="43.29935" lon="6.47986">
        <ele>325</ele>
        <time>2025-02-17T12:29:51.000Z</time>
      </trkpt>
      <trkpt lat="43.29914" lon="6.47986">
        <ele>327</ele>
        <time>2025-02-17T12:30:21.000Z</time>
      </trkpt>
      <trkpt lat="43.29897" lon="6.47966">
        <ele>330</ele>
        <time>2025-02-17T12:30:59.000Z</time>
      </trkpt>
      <trkpt lat="43.29877" lon="6.47947">
        <ele>332</ele>
        <time>2025-02-17T12:31:55.000Z</time>
      </trkpt>
      <trkpt lat="43.29859" lon="6.47927">
        <ele>333</ele>
        <time>2025-02-17T12:36:21.000Z</time>
      </trkpt>
      <trkpt lat="43.29836" lon="6.47898">
        <ele>335</ele>
        <time>2025-02-17T12:36:49.000Z</time>
      </trkpt>
      <trkpt lat="43.298" lon="6.4781">
        <ele>336</ele>
        <time>2025-02-17T12:39:46.000Z</time>
      </trkpt>
      <trkpt lat="43.29802" lon="6.47773">
        <ele>336</ele>
        <time>2025-02-17T12:40:21.000Z</time>
      </trkpt>
      <trkpt lat="43.29812" lon="6.47744">
        <ele>337</ele>
        <time>2025-02-17T12:41:28.000Z</time>
      </trkpt>
      <trkpt lat="43.29817" lon="6.47714">
        <ele>337</ele>
        <time>2025-02-17T12:41:57.000Z</time>
      </trkpt>
      <trkpt lat="43.2982" lon="6.47682">
        <ele>338</ele>
        <time>2025-02-17T12:42:38.000Z</time>
      </trkpt>
      <trkpt lat="43.29823" lon="6.47652">
        <ele>339</ele>
        <time>2025-02-17T12:43:08.000Z</time>
      </trkpt>
      <trkpt lat="43.29823" lon="6.47621">
        <ele>340</ele>
        <time>2025-02-17T12:43:38.000Z</time>
      </trkpt>
      <trkpt lat="43.29817" lon="6.47592">
        <ele>342</ele>
        <time>2025-02-17T12:44:33.000Z</time>
      </trkpt>
      <trkpt lat="43.29814" lon="6.47561">
        <ele>342</ele>
        <time>2025-02-17T12:45:01.000Z</time>
      </trkpt>
      <trkpt lat="43.29813" lon="6.47531">
        <ele>343</ele>
        <time>2025-02-17T12:45:47.000Z</time>
      </trkpt>
      <trkpt lat="43.29817" lon="6.475">
        <ele>344</ele>
        <time>2025-02-17T12:46:18.000Z</time>
      </trkpt>
      <trkpt lat="43.29825" lon="6.47471">
        <ele>346</ele>
        <time>2025-02-17T12:46:45.000Z</time>
      </trkpt>
      <trkpt lat="43.29834" lon="6.47441">
        <ele>348</ele>
        <time>2025-02-17T12:47:11.000Z</time>
      </trkpt>
      <trkpt lat="43.29843" lon="6.47414">
        <ele>349</ele>
        <time>2025-02-17T12:47:36.000Z</time>
      </trkpt>
      <trkpt lat="43.29854" lon="6.47386">
        <ele>350</ele>
        <time>2025-02-17T12:48:18.000Z</time>
      </trkpt>
      <trkpt lat="43.29864" lon="6.47358">
        <ele>351</ele>
        <time>2025-02-17T12:48:55.000Z</time>
      </trkpt>
      <trkpt lat="43.29879" lon="6.47334">
        <ele>351</ele>
        <time>2025-02-17T12:49:30.000Z</time>
      </trkpt>
      <trkpt lat="43.29898" lon="6.47325">
        <ele>351</ele>
        <time>2025-02-17T12:50:05.000Z</time>
      </trkpt>
      <trkpt lat="43.29915" lon="6.47342">
        <ele>352</ele>
        <time>2025-02-17T12:52:25.000Z</time>
      </trkpt>
      <trkpt lat="43.29924" lon="6.4737">
        <ele>352</ele>
        <time>2025-02-17T12:53:14.000Z</time>
      </trkpt>
      <trkpt lat="43.29934" lon="6.47398">
        <ele>352</ele>
        <time>2025-02-17T12:53:44.000Z</time>
      </trkpt>
      <trkpt lat="43.2995" lon="6.47418">
        <ele>352</ele>
        <time>2025-02-17T12:54:08.000Z</time>
      </trkpt>
      <trkpt lat="43.29972" lon="6.47423">
        <ele>352</ele>
        <time>2025-02-17T12:54:37.000Z</time>
      </trkpt>
      <trkpt lat="43.29994" lon="6.47419">
        <ele>352</ele>
        <time>2025-02-17T12:55:05.000Z</time>
      </trkpt>
      <trkpt lat="43.30016" lon="6.47417">
        <ele>352</ele>
        <time>2025-02-17T12:55:49.000Z</time>
      </trkpt>
      <trkpt lat="43.30038" lon="6.47411">
        <ele>353</ele>
        <time>2025-02-17T12:56:19.000Z</time>
      </trkpt>
      <trkpt lat="43.30062" lon="6.47409">
        <ele>354</ele>
        <time>2025-02-17T12:56:49.000Z</time>
      </trkpt>
      <trkpt lat="43.30085" lon="6.47414">
        <ele>355</ele>
        <time>2025-02-17T12:57:12.000Z</time>
      </trkpt>
      <trkpt lat="43.30106" lon="6.47427">
        <ele>356</ele>
        <time>2025-02-17T12:57:37.000Z</time>
      </trkpt>
      <trkpt lat="43.30128" lon="6.47434">
        <ele>356</ele>
        <time>2025-02-17T12:58:07.000Z</time>
      </trkpt>
      <trkpt lat="43.30151" lon="6.4744">
        <ele>356</ele>
        <time>2025-02-17T12:58:35.000Z</time>
      </trkpt>
      <trkpt lat="43.30174" lon="6.47441">
        <ele>355</ele>
        <time>2025-02-17T12:59:01.000Z</time>
      </trkpt>
      <trkpt lat="43.30197" lon="6.47439">
        <ele>355</ele>
        <time>2025-02-17T12:59:35.000Z</time>
      </trkpt>
      <trkpt lat="43.3022" lon="6.47439">
        <ele>355</ele>
        <time>2025-02-17T13:00:01.000Z</time>
      </trkpt>
      <trkpt lat="43.30242" lon="6.47438">
        <ele>351</ele>
        <time>2025-02-17T13:00:27.000Z</time>
      </trkpt>
      <trkpt lat="43.30264" lon="6.47431">
        <ele>347</ele>
        <time>2025-02-17T13:00:55.000Z</time>
      </trkpt>
      <trkpt lat="43.30287" lon="6.47427">
        <ele>342</ele>
        <time>2025-02-17T13:01:24.000Z</time>
      </trkpt>
      <trkpt lat="43.3031" lon="6.47421">
        <ele>339</ele>
        <time>2025-02-17T13:01:49.000Z</time>
      </trkpt>
      <trkpt lat="43.30333" lon="6.47415">
        <ele>343</ele>
        <time>2025-02-17T13:02:18.000Z</time>
      </trkpt>
      <trkpt lat="43.30355" lon="6.47409">
        <ele>347</ele>
        <time>2025-02-17T13:02:45.000Z</time>
      </trkpt>
      <trkpt lat="43.30377" lon="6.47397">
        <ele>352</ele>
        <time>2025-02-17T13:03:10.000Z</time>
      </trkpt>
      <trkpt lat="43.30394" lon="6.47376">
        <ele>355</ele>
        <time>2025-02-17T13:03:47.000Z</time>
      </trkpt>
      <trkpt lat="43.30409" lon="6.47353">
        <ele>356</ele>
        <time>2025-02-17T13:04:47.000Z</time>
      </trkpt>
      <trkpt lat="43.30422" lon="6.47327">
        <ele>356</ele>
        <time>2025-02-17T13:05:33.000Z</time>
      </trkpt>
      <trkpt lat="43.30426" lon="6.47296">
        <ele>356</ele>
        <time>2025-02-17T13:06:01.000Z</time>
      </trkpt>
      <trkpt lat="43.30426" lon="6.47265">
        <ele>357</ele>
        <time>2025-02-17T13:07:05.000Z</time>
      </trkpt>
      <trkpt lat="43.30423" lon="6.47235">
        <ele>357</ele>
        <time>2025-02-17T13:07:34.000Z</time>
      </trkpt>
      <trkpt lat="43.30417" lon="6.47205">
        <ele>357</ele>
        <time>2025-02-17T13:08:08.000Z</time>
      </trkpt>
      <trkpt lat="43.30409" lon="6.47176">
        <ele>357</ele>
        <time>2025-02-17T13:08:35.000Z</time>
      </trkpt>
      <trkpt lat="43.30399" lon="6.47148">
        <ele>358</ele>
        <time>2025-02-17T13:09:14.000Z</time>
      </trkpt>
      <trkpt lat="43.30388" lon="6.47117">
        <ele>358</ele>
        <time>2025-02-17T13:10:06.000Z</time>
      </trkpt>
      <trkpt lat="43.30381" lon="6.47093">
        <ele>358</ele>
        <time>2025-02-17T13:10:38.000Z</time>
      </trkpt>
      <trkpt lat="43.30401" lon="6.47092">
        <ele>358</ele>
        <time>2025-02-17T13:12:18.000Z</time>
      </trkpt>
      <trkpt lat="43.30418" lon="6.47075">
        <ele>358</ele>
        <time>2025-02-17T13:13:41.000Z</time>
      </trkpt>
      <trkpt lat="43.30439" lon="6.47066">
        <ele>358</ele>
        <time>2025-02-17T13:16:34.000Z</time>
      </trkpt>
      <trkpt lat="43.30461" lon="6.47069">
        <ele>359</ele>
        <time>2025-02-17T13:17:03.000Z</time>
      </trkpt>
      <trkpt lat="43.30484" lon="6.47062">
        <ele>360</ele>
        <time>2025-02-17T13:17:32.000Z</time>
      </trkpt>
      <trkpt lat="43.30501" lon="6.47042">
        <ele>361</ele>
        <time>2025-02-17T13:17:57.000Z</time>
      </trkpt>
      <trkpt lat="43.3051" lon="6.47011">
        <ele>362</ele>
        <time>2025-02-17T13:19:42.000Z</time>
      </trkpt>
      <trkpt lat="43.30516" lon="6.46981">
        <ele>365</ele>
        <time>2025-02-17T13:20:10.000Z</time>
      </trkpt>
      <trkpt lat="43.30531" lon="6.46961">
        <ele>367</ele>
        <time>2025-02-17T13:20:32.000Z</time>
      </trkpt>
      <trkpt lat="43.30552" lon="6.46952">
        <ele>370</ele>
        <time>2025-02-17T13:21:15.000Z</time>
      </trkpt>
      <trkpt lat="43.30572" lon="6.46936">
        <ele>371</ele>
        <time>2025-02-17T13:23:07.000Z</time>
      </trkpt>
      <trkpt lat="43.30591" lon="6.4692">
        <ele>371</ele>
        <time>2025-02-17T13:23:37.000Z</time>
      </trkpt>
      <trkpt lat="43.30608" lon="6.46901">
        <ele>370</ele>
        <time>2025-02-17T13:24:21.000Z</time>
      </trkpt>
      <trkpt lat="43.30627" lon="6.46886">
        <ele>369</ele>
        <time>2025-02-17T13:24:49.000Z</time>
      </trkpt>
      <trkpt lat="43.30648" lon="6.46892">
        <ele>369</ele>
        <time>2025-02-17T13:25:36.000Z</time>
      </trkpt>
      <trkpt lat="43.30664" lon="6.46913">
        <ele>369</ele>
        <time>2025-02-17T13:26:08.000Z</time>
      </trkpt>
      <trkpt lat="43.30681" lon="6.46933">
        <ele>369</ele>
        <time>2025-02-17T13:27:04.000Z</time>
      </trkpt>
      <trkpt lat="43.30702" lon="6.46942">
        <ele>367</ele>
        <time>2025-02-17T13:27:46.000Z</time>
      </trkpt>
      <trkpt lat="43.30725" lon="6.46947">
        <ele>366</ele>
        <time>2025-02-17T13:29:18.000Z</time>
      </trkpt>
      <trkpt lat="43.30746" lon="6.4695">
        <ele>365</ele>
        <time>2025-02-17T13:32:47.000Z</time>
      </trkpt>
      <trkpt lat="43.30766" lon="6.46966">
        <ele>364</ele>
        <time>2025-02-17T13:33:12.000Z</time>
      </trkpt>
      <trkpt lat="43.30782" lon="6.4699">
        <ele>363</ele>
        <time>2025-02-17T13:33:40.000Z</time>
      </trkpt>
      <trkpt lat="43.30796" lon="6.47014">
        <ele>362</ele>
        <time>2025-02-17T13:34:12.000Z</time>
      </trkpt>
      <trkpt lat="43.30813" lon="6.47033">
        <ele>360</ele>
        <time>2025-02-17T13:34:40.000Z</time>
      </trkpt>
      <trkpt lat="43.30836" lon="6.47043">
        <ele>358</ele>
        <time>2025-02-17T13:35:27.000Z</time>
      </trkpt>
      <trkpt lat="43.30858" lon="6.47051">
        <ele>357</ele>
        <time>2025-02-17T13:36:58.000Z</time>
      </trkpt>
      <trkpt lat="43.3088" lon="6.4706">
        <ele>357</ele>
        <time>2025-02-17T13:37:27.000Z</time>
      </trkpt>
      <trkpt lat="43.30903" lon="6.47064">
        <ele>356</ele>
        <time>2025-02-17T13:37:52.000Z</time>
      </trkpt>
      <trkpt lat="43.30925" lon="6.47067">
        <ele>357</ele>
        <time>2025-02-17T13:38:18.000Z</time>
      </trkpt>
      <trkpt lat="43.30947" lon="6.47066">
        <ele>357</ele>
        <time>2025-02-17T13:38:44.000Z</time>
      </trkpt>
      <trkpt lat="43.30969" lon="6.47072">
        <ele>358</ele>
        <time>2025-02-17T13:39:10.000Z</time>
      </trkpt>
      <trkpt lat="43.30991" lon="6.47081">
        <ele>360</ele>
        <time>2025-02-17T13:39:35.000Z</time>
      </trkpt>
      <trkpt lat="43.31013" lon="6.47086">
        <ele>362</ele>
        <time>2025-02-17T13:40:00.000Z</time>
      </trkpt>
      <trkpt lat="43.31035" lon="6.47091">
        <ele>365</ele>
        <time>2025-02-17T13:40:22.000Z</time>
      </trkpt>
      <trkpt lat="43.31058" lon="6.47096">
        <ele>370</ele>
        <time>2025-02-17T13:40:52.000Z</time>
      </trkpt>
      <trkpt lat="43.3108" lon="6.47101">
        <ele>372</ele>
        <time>2025-02-17T13:41:22.000Z</time>
      </trkpt>
      <trkpt lat="43.31102" lon="6.47104">
        <ele>377</ele>
        <time>2025-02-17T13:41:42.000Z</time>
      </trkpt>
      <trkpt lat="43.31124" lon="6.47111">
        <ele>381</ele>
        <time>2025-02-17T13:43:07.000Z</time>
      </trkpt>
      <trkpt lat="43.31147" lon="6.47114">
        <ele>383</ele>
        <time>2025-02-17T13:44:08.000Z</time>
      </trkpt>
      <trkpt lat="43.31171" lon="6.47115">
        <ele>387</ele>
        <time>2025-02-17T13:44:40.000Z</time>
      </trkpt>
      <trkpt lat="43.31192" lon="6.47123">
        <ele>388</ele>
        <time>2025-02-17T13:45:50.000Z</time>
      </trkpt>
      <trkpt lat="43.31214" lon="6.47135">
        <ele>390</ele>
        <time>2025-02-17T13:46:14.000Z</time>
      </trkpt>
      <trkpt lat="43.31234" lon="6.47149">
        <ele>391</ele>
        <time>2025-02-17T13:46:48.000Z</time>
      </trkpt>
      <trkpt lat="43.31253" lon="6.47165">
        <ele>392</ele>
        <time>2025-02-17T13:50:58.000Z</time>
      </trkpt>
      <trkpt lat="43.31276" lon="6.47168">
        <ele>393</ele>
        <time>2025-02-17T13:51:18.000Z</time>
      </trkpt>
      <trkpt lat="43.31293" lon="6.4717">
        <ele>393</ele>
        <time>2025-02-17T13:51:44.000Z</time>
      </trkpt>
      <trkpt lat="43.31278" lon="6.47183">
        <ele>393</ele>
        <time>2025-02-17T13:52:36.000Z</time>
      </trkpt>
      <trkpt lat="43.31255" lon="6.47193">
        <ele>394</ele>
        <time>2025-02-17T13:53:02.000Z</time>
      </trkpt>
      <trkpt lat="43.31233" lon="6.47203">
        <ele>389</ele>
        <time>2025-02-17T13:53:28.000Z</time>
      </trkpt>
      <trkpt lat="43.31212" lon="6.47214">
        <ele>386</ele>
        <time>2025-02-17T13:53:53.000Z</time>
      </trkpt>
      <trkpt lat="43.31192" lon="6.47228">
        <ele>384</ele>
        <time>2025-02-17T13:54:22.000Z</time>
      </trkpt>
      <trkpt lat="43.31172" lon="6.47242">
        <ele>380</ele>
        <time>2025-02-17T13:54:48.000Z</time>
      </trkpt>
      <trkpt lat="43.31153" lon="6.47257">
        <ele>380</ele>
        <time>2025-02-17T13:55:18.000Z</time>
      </trkpt>
      <trkpt lat="43.31137" lon="6.47279">
        <ele>379</ele>
        <time>2025-02-17T13:55:38.000Z</time>
      </trkpt>
      <trkpt lat="43.31119" lon="6.47298">
        <ele>378</ele>
        <time>2025-02-17T13:56:02.000Z</time>
      </trkpt>
      <trkpt lat="43.31101" lon="6.47319">
        <ele>375</ele>
        <time>2025-02-17T13:56:28.000Z</time>
      </trkpt>
      <trkpt lat="43.31083" lon="6.4734">
        <ele>372</ele>
        <time>2025-02-17T13:57:12.000Z</time>
      </trkpt>
      <trkpt lat="43.31065" lon="6.47358">
        <ele>370</ele>
        <time>2025-02-17T13:57:36.000Z</time>
      </trkpt>
      <trkpt lat="43.31046" lon="6.47377">
        <ele>367</ele>
        <time>2025-02-17T13:58:25.000Z</time>
      </trkpt>
      <trkpt lat="43.31026" lon="6.47397">
        <ele>366</ele>
        <time>2025-02-17T13:59:52.000Z</time>
      </trkpt>
      <trkpt lat="43.31011" lon="6.47417">
        <ele>365</ele>
        <time>2025-02-17T14:01:42.000Z</time>
      </trkpt>
      <trkpt lat="43.31018" lon="6.47444">
        <ele>363</ele>
        <time>2025-02-17T14:03:40.000Z</time>
      </trkpt>
      <trkpt lat="43.31038" lon="6.47459">
        <ele>361</ele>
        <time>2025-02-17T14:04:26.000Z</time>
      </trkpt>
      <trkpt lat="43.31057" lon="6.47476">
        <ele>359</ele>
        <time>2025-02-17T14:05:00.000Z</time>
      </trkpt>
      <trkpt lat="43.31077" lon="6.4749">
        <ele>358</ele>
        <time>2025-02-17T14:05:22.000Z</time>
      </trkpt>
      <trkpt lat="43.31097" lon="6.47508">
        <ele>356</ele>
        <time>2025-02-17T14:05:46.000Z</time>
      </trkpt>
      <trkpt lat="43.31115" lon="6.47527">
        <ele>355</ele>
        <time>2025-02-17T14:06:10.000Z</time>
      </trkpt>
      <trkpt lat="43.3113" lon="6.47549">
        <ele>354</ele>
        <time>2025-02-17T14:06:45.000Z</time>
      </trkpt>
      <trkpt lat="43.31141" lon="6.47576">
        <ele>353</ele>
        <time>2025-02-17T14:07:16.000Z</time>
      </trkpt>
      <trkpt lat="43.31143" lon="6.47602">
        <ele>351</ele>
        <time>2025-02-17T14:07:42.000Z</time>
      </trkpt>
      <trkpt lat="43.31124" lon="6.47605">
        <ele>350</ele>
        <time>2025-02-17T14:08:06.000Z</time>
      </trkpt>
      <trkpt lat="43.31102" lon="6.47609">
        <ele>348</ele>
        <time>2025-02-17T14:08:38.000Z</time>
      </trkpt>
      <trkpt lat="43.31081" lon="6.47621">
        <ele>346</ele>
        <time>2025-02-17T14:09:04.000Z</time>
      </trkpt>
      <trkpt lat="43.31062" lon="6.47639">
        <ele>343</ele>
        <time>2025-02-17T14:09:26.000Z</time>
      </trkpt>
      <trkpt lat="43.31044" lon="6.47658">
        <ele>340</ele>
        <time>2025-02-17T14:09:50.000Z</time>
      </trkpt>
      <trkpt lat="43.31025" lon="6.47676">
        <ele>337</ele>
        <time>2025-02-17T14:10:13.000Z</time>
      </trkpt>
      <trkpt lat="43.31008" lon="6.47696">
        <ele>334</ele>
        <time>2025-02-17T14:10:40.000Z</time>
      </trkpt>
      <trkpt lat="43.30995" lon="6.47721">
        <ele>332</ele>
        <time>2025-02-17T14:11:07.000Z</time>
      </trkpt>
      <trkpt lat="43.30992" lon="6.47751">
        <ele>330</ele>
        <time>2025-02-17T14:11:32.000Z</time>
      </trkpt>
      <trkpt lat="43.31001" lon="6.47779">
        <ele>329</ele>
        <time>2025-02-17T14:12:02.000Z</time>
      </trkpt>
      <trkpt lat="43.31007" lon="6.47809">
        <ele>327</ele>
        <time>2025-02-17T14:12:38.000Z</time>
      </trkpt>
      <trkpt lat="43.3101" lon="6.4784">
        <ele>326</ele>
        <time>2025-02-17T14:13:08.000Z</time>
      </trkpt>
      <trkpt lat="43.3101" lon="6.47871">
        <ele>325</ele>
        <time>2025-02-17T14:13:41.000Z</time>
      </trkpt>
      <trkpt lat="43.31002" lon="6.4789">
        <ele>324</ele>
        <time>2025-02-17T14:15:08.000Z</time>
      </trkpt>
      <trkpt lat="43.31005" lon="6.47866">
        <ele>324</ele>
        <time>2025-02-17T14:17:38.000Z</time>
      </trkpt>
      <trkpt lat="43.31009" lon="6.47834">
        <ele>324</ele>
        <time>2025-02-17T14:22:23.000Z</time>
      </trkpt>
      <trkpt lat="43.31003" lon="6.47804">
        <ele>325</ele>
        <time>2025-02-17T14:22:56.000Z</time>
      </trkpt>
      <trkpt lat="43.30995" lon="6.47774">
        <ele>326</ele>
        <time>2025-02-17T14:23:26.000Z</time>
      </trkpt>
      <trkpt lat="43.3099" lon="6.47742">
        <ele>328</ele>
        <time>2025-02-17T14:24:04.000Z</time>
      </trkpt>
      <trkpt lat="43.30997" lon="6.47713">
        <ele>331</ele>
        <time>2025-02-17T14:24:28.000Z</time>
      </trkpt>
      <trkpt lat="43.3101" lon="6.47687">
        <ele>333</ele>
        <time>2025-02-17T14:24:53.000Z</time>
      </trkpt>
      <trkpt lat="43.31026" lon="6.47664">
        <ele>335</ele>
        <time>2025-02-17T14:25:18.000Z</time>
      </trkpt>
      <trkpt lat="43.31045" lon="6.47648">
        <ele>338</ele>
        <time>2025-02-17T14:25:46.000Z</time>
      </trkpt>
      <trkpt lat="43.31062" lon="6.47627">
        <ele>341</ele>
        <time>2025-02-17T14:26:26.000Z</time>
      </trkpt>
      <trkpt lat="43.31083" lon="6.4761">
        <ele>344</ele>
        <time>2025-02-17T14:26:52.000Z</time>
      </trkpt>
      <trkpt lat="43.31105" lon="6.476">
        <ele>346</ele>
        <time>2025-02-17T14:27:18.000Z</time>
      </trkpt>
      <trkpt lat="43.31127" lon="6.47597">
        <ele>349</ele>
        <time>2025-02-17T14:28:06.000Z</time>
      </trkpt>
      <trkpt lat="43.31142" lon="6.47582">
        <ele>350</ele>
        <time>2025-02-17T14:28:26.000Z</time>
      </trkpt>
      <trkpt lat="43.31131" lon="6.47561">
        <ele>353</ele>
        <time>2025-02-17T14:28:58.000Z</time>
      </trkpt>
      <trkpt lat="43.31116" lon="6.47538">
        <ele>356</ele>
        <time>2025-02-17T14:29:30.000Z</time>
      </trkpt>
      <trkpt lat="43.31099" lon="6.47515">
        <ele>359</ele>
        <time>2025-02-17T14:29:54.000Z</time>
      </trkpt>
      <trkpt lat="43.31082" lon="6.47493">
        <ele>362</ele>
        <time>2025-02-17T14:30:18.000Z</time>
      </trkpt>
      <trkpt lat="43.31063" lon="6.47474">
        <ele>364</ele>
        <time>2025-02-17T14:30:50.000Z</time>
      </trkpt>
      <trkpt lat="43.31042" lon="6.47462">
        <ele>366</ele>
        <time>2025-02-17T14:31:10.000Z</time>
      </trkpt>
      <trkpt lat="43.31022" lon="6.47449">
        <ele>369</ele>
        <time>2025-02-17T14:31:34.000Z</time>
      </trkpt>
      <trkpt lat="43.31011" lon="6.47426">
        <ele>371</ele>
        <time>2025-02-17T14:31:58.000Z</time>
      </trkpt>
      <trkpt lat="43.3102" lon="6.47401">
        <ele>373</ele>
        <time>2025-02-17T14:32:21.000Z</time>
      </trkpt>
      <trkpt lat="43.31036" lon="6.47381">
        <ele>375</ele>
        <time>2025-02-17T14:32:55.000Z</time>
      </trkpt>
      <trkpt lat="43.31055" lon="6.47362">
        <ele>378</ele>
        <time>2025-02-17T14:33:42.000Z</time>
      </trkpt>
      <trkpt lat="43.31072" lon="6.47341">
        <ele>380</ele>
        <time>2025-02-17T14:34:10.000Z</time>
      </trkpt>
      <trkpt lat="43.31093" lon="6.47327">
        <ele>384</ele>
        <time>2025-02-17T14:34:38.000Z</time>
      </trkpt>
      <trkpt lat="43.31109" lon="6.47305">
        <ele>386</ele>
        <time>2025-02-17T14:35:46.000Z</time>
      </trkpt>
      <trkpt lat="43.31128" lon="6.47285">
        <ele>388</ele>
        <time>2025-02-17T14:36:22.000Z</time>
      </trkpt>
      <trkpt lat="43.31146" lon="6.47265">
        <ele>390</ele>
        <time>2025-02-17T14:36:50.000Z</time>
      </trkpt>
      <trkpt lat="43.31164" lon="6.47249">
        <ele>391</ele>
        <time>2025-02-17T14:37:13.000Z</time>
      </trkpt>
      <trkpt lat="43.31183" lon="6.47231">
        <ele>392</ele>
        <time>2025-02-17T14:37:46.000Z</time>
      </trkpt>
      <trkpt lat="43.31203" lon="6.47218">
        <ele>393</ele>
        <time>2025-02-17T14:38:11.000Z</time>
      </trkpt>
      <trkpt lat="43.31224" lon="6.47204">
        <ele>394</ele>
        <time>2025-02-17T14:38:43.000Z</time>
      </trkpt>
      <trkpt lat="43.31245" lon="6.47194">
        <ele>397</ele>
        <time>2025-02-17T14:39:08.000Z</time>
      </trkpt>
      <trkpt lat="43.31268" lon="6.47186">
        <ele>397</ele>
        <time>2025-02-17T14:39:34.000Z</time>
      </trkpt>
      <trkpt lat="43.3129" lon="6.47178">
        <ele>398</ele>
        <time>2025-02-17T14:40:02.000Z</time>
      </trkpt>
      <trkpt lat="43.31311" lon="6.47168">
        <ele>398</ele>
        <time>2025-02-17T14:40:32.000Z</time>
      </trkpt>
      <trkpt lat="43.31332" lon="6.47157">
        <ele>397</ele>
        <time>2025-02-17T14:40:56.000Z</time>
      </trkpt>
      <trkpt lat="43.31348" lon="6.47137">
        <ele>398</ele>
        <time>2025-02-17T14:42:21.000Z</time>
      </trkpt>
      <trkpt lat="43.31369" lon="6.4713">
        <ele>398</ele>
        <time>2025-02-17T14:42:42.000Z</time>
      </trkpt>
      <trkpt lat="43.31391" lon="6.47123">
        <ele>398</ele>
        <time>2025-02-17T14:43:12.000Z</time>
      </trkpt>
      <trkpt lat="43.31414" lon="6.47117">
        <ele>398</ele>
        <time>2025-02-17T14:43:34.000Z</time>
      </trkpt>
      <trkpt lat="43.31436" lon="6.47112">
        <ele>398</ele>
        <time>2025-02-17T14:43:58.000Z</time>
      </trkpt>
      <trkpt lat="43.31458" lon="6.47105">
        <ele>398</ele>
        <time>2025-02-17T14:44:30.000Z</time>
      </trkpt>
      <trkpt lat="43.31479" lon="6.47093">
        <ele>398</ele>
        <time>2025-02-17T14:44:56.000Z</time>
      </trkpt>
      <trkpt lat="43.31501" lon="6.47086">
        <ele>398</ele>
        <time>2025-02-17T14:45:33.000Z</time>
      </trkpt>
      <trkpt lat="43.31524" lon="6.4708">
        <ele>398</ele>
        <time>2025-02-17T14:45:56.000Z</time>
      </trkpt>
      <trkpt lat="43.31546" lon="6.47075">
        <ele>398</ele>
        <time>2025-02-17T14:46:28.000Z</time>
      </trkpt>
      <trkpt lat="43.31569" lon="6.47073">
        <ele>398</ele>
        <time>2025-02-17T14:46:58.000Z</time>
      </trkpt>
      <trkpt lat="43.31593" lon="6.4707">
        <ele>398</ele>
        <time>2025-02-17T14:47:38.000Z</time>
      </trkpt>
      <trkpt lat="43.31615" lon="6.47061">
        <ele>397</ele>
        <time>2025-02-17T14:47:59.000Z</time>
      </trkpt>
      <trkpt lat="43.31637" lon="6.47051">
        <ele>397</ele>
        <time>2025-02-17T14:48:32.000Z</time>
      </trkpt>
      <trkpt lat="43.31659" lon="6.47041">
        <ele>396</ele>
        <time>2025-02-17T14:48:58.000Z</time>
      </trkpt>
      <trkpt lat="43.31682" lon="6.47033">
        <ele>395</ele>
        <time>2025-02-17T14:49:29.000Z</time>
      </trkpt>
      <trkpt lat="43.31703" lon="6.47025">
        <ele>394</ele>
        <time>2025-02-17T14:49:52.000Z</time>
      </trkpt>
      <trkpt lat="43.31725" lon="6.47014">
        <ele>392</ele>
        <time>2025-02-17T14:50:18.000Z</time>
      </trkpt>
      <trkpt lat="43.31747" lon="6.47009">
        <ele>391</ele>
        <time>2025-02-17T14:50:52.000Z</time>
      </trkpt>
      <trkpt lat="43.3177" lon="6.47">
        <ele>390</ele>
        <time>2025-02-17T14:51:08.000Z</time>
      </trkpt>
      <trkpt lat="43.31791" lon="6.46997">
        <ele>388</ele>
        <time>2025-02-17T14:51:44.000Z</time>
      </trkpt>
      <trkpt lat="43.31805" lon="6.47018">
        <ele>387</ele>
        <time>2025-02-17T14:52:06.000Z</time>
      </trkpt>
      <trkpt lat="43.31821" lon="6.47037">
        <ele>386</ele>
        <time>2025-02-17T14:52:33.000Z</time>
      </trkpt>
      <trkpt lat="43.31844" lon="6.47039">
        <ele>384</ele>
        <time>2025-02-17T14:52:59.000Z</time>
      </trkpt>
      <trkpt lat="43.31867" lon="6.47036">
        <ele>382</ele>
        <time>2025-02-17T14:53:28.000Z</time>
      </trkpt>
      <trkpt lat="43.31891" lon="6.47033">
        <ele>382</ele>
        <time>2025-02-17T14:53:56.000Z</time>
      </trkpt>
      <trkpt lat="43.31913" lon="6.47029">
        <ele>380</ele>
        <time>2025-02-17T14:54:16.000Z</time>
      </trkpt>
      <trkpt lat="43.31936" lon="6.47022">
        <ele>377</ele>
        <time>2025-02-17T14:54:39.000Z</time>
      </trkpt>
      <trkpt lat="43.31958" lon="6.47019">
        <ele>377</ele>
        <time>2025-02-17T14:55:02.000Z</time>
      </trkpt>
      <trkpt lat="43.3198" lon="6.47023">
        <ele>377</ele>
        <time>2025-02-17T14:55:23.000Z</time>
      </trkpt>
      <trkpt lat="43.32002" lon="6.47033">
        <ele>377</ele>
        <time>2025-02-17T14:55:45.000Z</time>
      </trkpt>
    </trkseg>
  </trk>
</gpx>